Time;durP1;ratioP1;P1;durP2;ratioP2;P2;SDS_P1;SDS_P2;PMS_P1;PMS_P2;Temp;Humidity;BMP_temperature;BMP_pressure;BME280_temperature;BME280_humidity;BME280_pressure;Samples;Min_cycle;Max_cycle;Signal;HPM_P1;HPM_P2
2021/12/13 00:00:24;;;;;;;46.50;20.83;;;;;;;-0.61;93.62;100761.25;1420739;90;22576;-85
2021/12/13 00:03:03;;;;;;;57.47;23.33;;;;;;;-0.65;94.38;100763.62;1426869;90;22603;-87
2021/12/13 00:05:50;;;;;;;49.87;18.73;;;;;;;-0.73;94.85;100765.24;1430310;90;21745;-87
2021/12/13 00:08:23;;;;;;;32.17;15.40;;;;;;;-0.76;95.58;100754.14;1440174;90;22729;-86
2021/12/13 00:11:02;;;;;;;48.27;18.83;;;;;;;-0.78;95.42;100759.39;1437026;91;21662;-88
2021/12/13 00:13:37;;;;;;;47.63;22.00;;;;;;;-0.76;95.75;100741.15;1440294;90;21669;-87
2021/12/13 00:16:07;;;;;;;44.50;19.33;;;;;;;-0.80;96.59;100752.14;1436712;91;23001;-87
2021/12/13 00:18:40;;;;;;;45.00;20.07;;;;;;;-0.82;97.07;100759.61;1433791;90;21636;-88
2021/12/13 00:21:15;;;;;;;43.27;18.97;;;;;;;-0.79;97.08;100756.88;1432454;91;21858;-88
2021/12/13 00:23:48;;;;;;;46.50;20.13;;;;;;;-0.80;97.00;100750.01;1437176;91;21487;-88
2021/12/13 00:26:36;;;;;;;44.77;17.70;;;;;;;-0.83;97.01;100748.84;1435399;90;22750;-89
2021/12/13 00:29:23;;;;;;;52.43;21.63;;;;;;;-0.87;96.99;100758.97;1427433;91;21762;-88
2021/12/13 00:32:20;;;;;;;33.90;14.63;;;;;;;-0.81;97.91;100759.99;1422034;91;22692;-88
2021/12/13 00:34:54;;;;;;;34.48;15.75;;;;;;;-0.84;97.64;100764.02;1427772;91;22176;-88
2021/12/13 00:37:47;;;;;;;48.37;21.60;;;;;;;-0.93;97.23;100756.17;1436456;90;21485;-86
2021/12/13 00:40:36;;;;;;;37.50;17.57;;;;;;;-0.88;96.90;100764.62;1433020;90;21597;-87
2021/12/13 00:43:11;;;;;;;40.70;17.87;;;;;;;-0.87;96.64;100763.70;1426792;90;21463;-87
2021/12/13 00:45:43;;;;;;;46.57;20.57;;;;;;;-0.84;96.74;100767.47;1434442;91;21861;-87
2021/12/13 00:48:10;;;;;;;42.17;19.70;;;;;;;-0.81;96.05;100767.33;1439332;91;21914;-87
2021/12/13 00:51:09;;;;;;;40.77;18.67;;;;;;;-0.78;95.88;100770.25;1436010;91;22384;-87
2021/12/13 00:53:42;;;;;;;37.10;16.77;;;;;;;-0.74;95.21;100770.52;1436547;90;21687;-87
2021/12/13 00:56:56;;;;;;;47.73;21.90;;;;;;;-0.74;95.09;100780.92;1433678;90;21698;-88
2021/12/13 00:59:44;;;;;;;43.90;17.87;;;;;;;-0.71;94.99;100780.33;1425289;91;21630;-87
2021/12/13 01:02:28;;;;;;;36.97;16.57;;;;;;;-0.73;94.82;100789.09;1435509;90;21673;-87
2021/12/13 01:05:16;;;;;;;48.43;20.43;;;;;;;-0.73;94.70;100785.20;1436607;90;21785;-87
2021/12/13 01:08:15;;;;;;;36.80;17.60;;;;;;;-0.65;94.98;100788.31;1437653;91;21443;-87
2021/12/13 01:11:05;;;;;;;32.80;16.02;;;;;;;-0.71;94.61;100792.02;1438249;91;22351;-87
2021/12/13 01:13:51;;;;;;;39.53;19.05;;;;;;;-0.71;95.38;100793.78;1431546;91;22899;-86
2021/12/13 01:17:03;;;;;;;28.07;13.17;;;;;;;-0.77;95.51;100801.85;1436111;89;21501;-87
2021/12/13 01:19:57;;;;;;;37.00;18.53;;;;;;;-0.79;96.14;100804.96;1465207;91;23181;-88
2021/12/13 01:22:51;;;;;;;35.50;17.63;;;;;;;-0.76;96.67;100800.93;1434090;91;22745;-87
2021/12/13 01:25:44;;;;;;;40.30;19.53;;;;;;;-0.80;96.39;100795.03;1435286;91;21727;-86
2021/12/13 01:28:27;;;;;;;50.07;17.73;;;;;;;-0.79;96.16;100804.96;1431127;91;22135;-87
2021/12/13 01:31:02;;;;;;;37.90;18.33;;;;;;;-0.80;95.70;100804.13;1429560;90;22725;-88
2021/12/13 01:33:32;;;;;;;36.90;18.77;;;;;;;-0.75;95.83;100797.41;1436259;91;21834;-87
2021/12/13 01:36:03;;;;;;;50.43;22.77;;;;;;;-0.76;95.99;100802.23;1434165;90;21693;-86
2021/12/13 01:38:40;;;;;;;42.50;19.85;;;;;;;-0.75;96.27;100806.08;1432219;91;21756;-87
2021/12/13 01:41:15;;;;;;;42.80;17.93;;;;;;;-0.76;96.68;100804.83;1435430;91;21419;-87
2021/12/13 01:43:48;;;;;;;36.83;15.27;;;;;;;-0.80;97.26;100807.19;1420778;91;21668;-87
2021/12/13 01:46:19;;;;;;;34.00;16.63;;;;;;;-0.84;97.70;100808.20;1436290;90;21796;-86
2021/12/13 01:48:48;;;;;;;27.35;11.20;;;;;;;-0.85;98.23;100803.93;1432430;91;21665;-85
2021/12/13 01:51:21;;;;;;;36.33;14.17;;;;;;;-0.86;99.11;100810.02;1442917;91;21597;-87
2021/12/13 01:53:59;;;;;;;36.07;15.90;;;;;;;-0.89;99.88;100803.22;1431816;90;22549;-87
2021/12/13 01:59:48;;;;;;;36.35;14.55;;;;;;;-0.91;99.99;100813.67;1445916;90;21638;-87
2021/12/13 02:02:30;;;;;;;36.48;15.30;;;;;;;-0.98;100.00;100812.25;1439072;91;21596;-86
2021/12/13 02:05:18;;;;;;;30.40;14.83;;;;;;;-0.97;100.00;100810.50;1430715;90;22619;-88
2021/12/13 02:08:12;;;;;;;33.63;13.98;;;;;;;-1.01;100.00;100813.66;1434009;91;21649;-88
2021/12/13 02:10:50;;;;;;;37.50;16.53;;;;;;;-0.99;100.00;100814.91;1442301;90;22372;-89
2021/12/13 02:13:23;;;;;;;33.00;13.00;;;;;;;-1.02;100.00;100823.67;1423936;92;22022;-89
2021/12/13 02:18:46;;;;;;;37.90;18.57;;;;;;;-1.04;100.00;100820.28;1417029;91;21442;-91
2021/12/13 02:21:24;;;;;;;48.78;20.57;;;;;;;-1.02;100.00;100817.17;1415779;91;23211;-92
2021/12/13 02:23:51;;;;;;;35.70;16.50;;;;;;;-1.01;100.00;100827.94;1413093;92;22447;-91
2021/12/13 02:26:19;;;;;;;33.25;13.78;;;;;;;-1.00;100.00;100831.41;1418707;91;21691;-92
2021/12/13 02:28:51;;;;;;;36.90;15.60;;;;;;;-1.07;100.00;100839.89;1421599;91;21368;-90
2021/12/13 02:31:23;;;;;;;33.40;15.33;;;;;;;-1.05;100.00;100836.78;1413437;91;22526;-91
2021/12/13 02:33:59;;;;;;;35.47;15.47;;;;;;;-1.04;100.00;100842.36;1414136;92;22574;-90
2021/12/13 02:36:34;;;;;;;30.87;14.97;;;;;;;-1.02;100.00;100843.16;1419870;92;21898;-91
2021/12/13 02:39:22;;;;;;;33.13;14.98;;;;;;;-1.00;100.00;100837.45;1418053;91;21858;-85
2021/12/13 02:41:51;;;;;;;50.17;22.40;;;;;;;-1.08;100.00;100842.11;1413378;91;21463;-86
2021/12/13 02:44:26;;;;;;;36.03;18.00;;;;;;;-1.02;100.00;100837.95;1416605;91;21589;-88
2021/12/13 02:46:59;;;;;;;41.60;18.07;;;;;;;-1.04;100.00;100842.82;1408357;92;21507;-87
2021/12/13 02:49:26;;;;;;;33.80;15.93;;;;;;;-1.04;100.00;100844.95;1409446;91;21690;-88
2021/12/13 02:52:01;;;;;;;37.53;17.17;;;;;;;-1.07;100.00;100838.59;1429441;91;22079;-88
2021/12/13 02:54:38;;;;;;;40.80;17.90;;;;;;;-1.04;100.00;100842.36;1417200;92;21664;-86
2021/12/13 02:57:16;;;;;;;31.15;15.95;;;;;;;-1.00;100.00;100843.94;1419232;91;21816;-85
2021/12/13 02:59:49;;;;;;;30.80;13.53;;;;;;;-0.99;100.00;100843.48;1419139;91;21508;-88
2021/12/13 03:02:29;;;;;;;34.03;15.83;;;;;;;-0.95;100.00;100833.34;1417494;91;21686;-87
2021/12/13 03:04:59;;;;;;;28.85;12.18;;;;;;;-0.94;100.00;100829.85;1411889;91;21585;-87
2021/12/13 03:07:34;;;;;;;36.70;14.67;;;;;;;-0.93;100.00;100842.77;1423358;91;22476;-87
2021/12/13 03:10:15;;;;;;;44.83;18.40;;;;;;;-0.87;99.72;100839.52;1414956;91;22142;-87
2021/12/13 03:12:43;;;;;;;33.53;14.40;;;;;;;-0.86;98.48;100834.27;1396149;92;22221;-86
2021/12/13 03:15:15;;;;;;;31.30;13.00;;;;;;;-0.83;96.47;100841.10;1401227;93;21975;-86
2021/12/13 03:18:15;;;;;;;35.60;14.77;;;;;;;-0.81;96.71;100836.20;1403106;92;21814;-86
2021/12/13 03:21:12;;;;;;;30.07;14.33;;;;;;;-0.74;96.51;100840.70;1405493;92;21605;-86
2021/12/13 03:24:00;;;;;;;31.67;14.03;;;;;;;-0.72;96.41;100842.77;1391481;94;21859;-86
2021/12/13 03:26:50;;;;;;;32.90;15.33;;;;;;;-0.74;96.51;100840.70;1390982;94;21696;-86
2021/12/13 03:29:40;;;;;;;32.17;15.23;;;;;;;-0.71;97.19;100845.77;1390392;94;22541;-87
2021/12/13 03:32:12;;;;;;;31.37;15.43;;;;;;;-0.73;97.37;100839.78;1379274;94;22522;-88
2021/12/13 03:34:45;;;;;;;27.80;12.93;;;;;;;-0.74;97.56;100843.30;1391200;94;23989;-87
2021/12/13 03:37:18;;;;;;;37.03;15.83;;;;;;;-0.75;98.30;100846.80;1389362;94;21740;-87
2021/12/13 03:39:50;;;;;;;30.83;14.60;;;;;;;-0.76;98.27;100842.52;1387469;93;22660;-86
2021/12/13 03:42:22;;;;;;;29.20;13.63;;;;;;;-0.79;98.33;100837.45;1392288;94;22127;-86
2021/12/13 03:44:54;;;;;;;32.43;14.77;;;;;;;-0.78;98.83;100852.12;1390418;94;22814;-86
2021/12/13 03:47:27;;;;;;;29.50;14.10;;;;;;;-0.77;98.64;100840.84;1410971;92;22253;-86
2021/12/13 03:49:59;;;;;;;25.57;13.80;;;;;;;-0.77;98.81;100840.84;1418171;92;21893;-86
2021/12/13 03:52:31;;;;;;;28.57;13.97;;;;;;;-0.78;98.88;100846.92;1412911;92;21415;-86
2021/12/13 03:55:02;;;;;;;30.63;16.40;;;;;;;-0.79;99.01;100847.84;1416585;92;21696;-86
2021/12/13 03:57:31;;;;;;;;;;;;;;;-0.83;98.59;100848.44;1420649;92;21868;-87
2021/12/13 04:00:00;;;;;;;27.30;11.37;;;;;;;-0.82;98.26;100861.81;1411079;92;20415;-88
2021/12/13 04:02:32;;;;;;;30.70;12.37;;;;;;;-0.80;97.94;100863.06;1429672;91;22562;-87
2021/12/13 04:05:05;;;;;;;28.10;13.23;;;;;;;-0.78;97.58;100863.82;1433802;91;21692;-87
2021/12/13 04:07:37;;;;;;;26.50;12.40;;;;;;;-0.80;97.41;100865.20;1435288;91;21948;-87
2021/12/13 04:10:13;;;;;;;23.20;10.73;;;;;;;-0.83;97.13;100866.63;1437735;90;22770;-86
2021/12/13 04:12:50;;;;;;;37.23;15.03;;;;;;;-0.80;98.19;100869.56;1407955;93;21686;-86
2021/12/13 04:15:32;;;;;;;30.15;13.55;;;;;;;-0.81;98.77;100868.69;1407943;93;21819;-87
2021/12/13 04:18:12;;;;;;;29.77;13.03;;;;;;;-0.82;99.60;100868.31;1412739;92;21671;-87
2021/12/13 04:20:36;;;;;;;28.23;13.43;;;;;;;-0.84;99.90;100870.58;1403584;92;21812;-87
2021/12/13 04:23:18;;;;;;;25.17;13.03;;;;;;;-0.84;100.00;100871.88;1404409;93;21866;-84
2021/12/13 04:25:50;;;;;;;27.32;13.38;;;;;;;-0.85;100.00;100872.80;1407204;93;21806;-85
2021/12/13 04:28:25;;;;;;;26.47;12.67;;;;;;;-0.90;100.00;100878.17;1410099;92;21501;-85
2021/12/13 04:30:58;;;;;;;26.47;13.70;;;;;;;-0.89;100.00;100880.31;1408408;91;21890;-84
2021/12/13 04:33:38;;;;;;;23.07;10.90;;;;;;;-0.92;100.00;100886.52;1407562;92;21728;-86
2021/12/13 04:36:13;;;;;;;26.80;12.93;;;;;;;-0.89;100.00;100882.91;1410560;92;22859;-87
2021/12/13 04:38:58;;;;;;;27.80;11.27;;;;;;;-0.92;100.00;100882.16;1411855;93;21793;-87
2021/12/13 04:41:39;;;;;;;24.50;11.87;;;;;;;-0.93;100.00;100881.74;1402401;92;23107;-86
2021/12/13 04:44:12;;;;;;;24.95;11.20;;;;;;;-0.89;100.00;100885.08;1405623;92;21992;-90
2021/12/13 04:46:42;;;;;;;24.40;8.73;;;;;;;-0.92;100.00;100883.45;1382938;94;21473;-90
2021/12/13 04:49:13;;;;;;;25.63;12.03;;;;;;;-0.92;100.00;100887.81;1373431;93;22512;-90
2021/12/13 04:52:04;;;;;;;23.50;12.23;;;;;;;-0.93;100.00;100884.80;1407922;93;21735;-90
2021/12/13 04:54:36;;;;;;;21.00;11.83;;;;;;;-0.87;100.00;100887.14;1386820;93;21677;-88
2021/12/13 04:57:04;;;;;;;19.60;10.60;;;;;;;-0.89;100.00;100888.11;1403273;92;21481;-87
2021/12/13 04:59:35;;;;;;;24.43;11.70;;;;;;;-0.89;100.00;100894.61;1403946;92;21909;-88
2021/12/13 05:02:07;;;;;;;25.32;11.38;;;;;;;-0.87;100.00;100891.50;1397484;92;21585;-87
2021/12/13 05:04:36;;;;;;;24.83;11.33;;;;;;;-0.86;100.00;100891.88;1405595;93;21495;-88
2021/12/13 05:07:06;;;;;;;20.47;9.60;;;;;;;-0.87;100.00;100886.30;1396694;93;21698;-85
2021/12/13 05:09:36;;;;;;;20.17;9.27;;;;;;;-0.88;100.00;100895.86;1385033;93;21662;-86
2021/12/13 05:12:13;;;;;;;23.70;10.87;;;;;;;-0.89;100.00;100892.00;1420983;91;21770;-84
2021/12/13 05:14:51;;;;;;;24.10;12.93;;;;;;;-0.92;100.00;100897.74;1427685;90;21802;-85
2021/12/13 05:17:26;;;;;;;23.43;12.63;;;;;;;-0.91;100.00;100896.83;1425700;90;21559;-85
2021/12/13 05:20:17;;;;;;;17.03;9.03;;;;;;;-0.88;100.00;100901.52;1408475;92;22764;-84
2021/12/13 05:22:59;;;;;;;20.37;9.55;;;;;;;-0.85;100.00;100894.89;1421206;91;23657;-88
2021/12/13 05:25:47;;;;;;;24.50;11.17;;;;;;;-0.84;100.00;100894.81;1433637;91;22473;-85
2021/12/13 05:28:25;;;;;;;28.17;12.07;;;;;;;-0.83;100.00;100901.72;1433068;91;21682;-84
2021/12/13 05:31:04;;;;;;;21.83;11.20;;;;;;;-0.86;100.00;100916.56;1421406;91;22685;-85
2021/12/13 05:33:36;;;;;;;25.73;10.90;;;;;;;-0.79;100.00;100905.03;1433330;89;22270;-84
2021/12/13 05:36:11;;;;;;;25.43;9.90;;;;;;;-0.80;100.00;100911.14;1438834;89;21499;-84
2021/12/13 05:38:46;;;;;;;24.63;11.90;;;;;;;-0.83;100.00;100913.88;1435435;90;21787;-85
2021/12/13 05:41:26;;;;;;;23.03;10.67;;;;;;;-0.80;100.00;100918.94;1443094;91;22700;-85
2021/12/13 05:43:59;;;;;;;21.23;10.15;;;;;;;-0.79;100.00;100920.63;1434112;91;21577;-87
2021/12/13 05:46:46;;;;;;;29.03;12.93;;;;;;;-0.79;100.00;100918.86;1432764;89;22788;-87
2021/12/13 05:49:34;;;;;;;18.07;6.40;;;;;;;-0.76;100.00;100921.79;1431458;91;21654;-89
2021/12/13 05:52:13;;;;;;;20.33;9.33;;;;;;;-0.81;100.00;100928.92;1428361;89;21767;-88
2021/12/13 05:54:48;;;;;;;15.93;8.53;;;;;;;-0.77;100.00;100930.52;1430079;89;23133;-89
2021/12/13 05:57:21;;;;;;;22.67;9.93;;;;;;;-0.78;100.00;100930.09;1436138;91;21797;-88
2021/12/13 06:00:02;;;;;;;19.23;8.17;;;;;;;-0.78;100.00;100934.00;1434078;91;21578;-89
2021/12/13 06:03:03;;;;;;;26.70;11.10;;;;;;;-0.79;100.00;100933.61;1441181;89;21645;-90
2021/12/13 06:05:41;;;;;;;13.93;8.27;;;;;;;-0.84;100.00;100932.95;1428287;89;21760;-90
2021/12/13 06:08:14;;;;;;;23.07;10.67;;;;;;;-0.82;100.00;100933.74;1428903;91;21637;-88
2021/12/13 06:10:58;;;;;;;21.57;10.80;;;;;;;-0.82;100.00;100942.37;1434398;91;23038;-87
2021/12/13 06:13:46;;;;;;;18.30;8.73;;;;;;;-0.79;100.00;100938.36;1428681;91;21571;-90
2021/12/13 06:16:22;;;;;;;21.80;10.33;;;;;;;-0.77;100.00;100940.91;1424131;89;21772;-87
2021/12/13 06:19:13;;;;;;;21.48;9.63;;;;;;;-0.73;100.00;100943.76;1433095;91;22054;-84
2021/12/13 06:22:10;;;;;;;12.13;5.85;;;;;;;-0.72;100.00;100946.73;1437802;91;21475;-86
2021/12/13 06:24:55;;;;;;;18.90;10.53;;;;;;;-0.71;100.00;100953.19;1433042;91;21378;-86
2021/12/13 06:27:27;;;;;;;37.50;15.67;;;;;;;-0.67;100.00;100951.30;1434226;91;21907;-87
2021/12/13 06:30:08;;;;;;;18.57;9.37;;;;;;;-0.70;100.00;100961.37;1432572;90;21739;-86
2021/12/13 06:32:57;;;;;;;23.20;7.63;;;;;;;-0.66;100.00;100954.31;1431289;91;21948;-86
2021/12/13 06:35:48;;;;;;;31.77;11.53;;;;;;;-0.67;100.00;100957.80;1433879;90;21908;-87
2021/12/13 06:38:26;;;;;;;20.33;9.73;;;;;;;-0.61;100.00;100953.64;1430068;91;21469;-87
2021/12/13 06:41:17;;;;;;;59.13;30.40;;;;;;;-0.58;100.00;100953.52;1433083;91;21666;-88
2021/12/13 06:44:11;;;;;;;21.48;8.48;;;;;;;-0.57;99.21;100954.39;1434525;91;21474;-86
2021/12/13 06:46:55;;;;;;;24.70;11.63;;;;;;;-0.56;98.36;100960.80;1432012;90;21578;-86
2021/12/13 06:49:40;;;;;;;14.03;6.73;;;;;;;-0.47;98.74;100960.42;1435394;91;21710;-85
2021/12/13 06:52:22;;;;;;;20.40;10.17;;;;;;;-0.52;97.54;100966.28;1438246;91;22474;-86
2021/12/13 06:55:09;;;;;;;15.00;8.13;;;;;;;-0.50;97.24;100972.25;1439806;91;22563;-86
2021/12/13 06:57:46;;;;;;;12.77;5.83;;;;;;;-0.47;96.06;100970.81;1441368;91;21640;-86
2021/12/13 07:00:28;;;;;;;19.93;9.03;;;;;;;-0.42;95.52;100971.94;1439472;91;21653;-85
2021/12/13 07:03:04;;;;;;;19.10;8.20;;;;;;;-0.35;94.60;100972.52;1436272;90;21469;-85
2021/12/13 07:05:39;;;;;;;17.13;9.40;;;;;;;-0.32;93.95;100971.08;1432042;91;21883;-85
2021/12/13 07:08:17;;;;;;;16.43;7.77;;;;;;;-0.26;93.51;100982.09;1439309;90;21847;-82
2021/12/13 07:10:55;;;;;;;12.47;5.10;;;;;;;-0.23;92.40;100975.92;1423770;91;23611;-82
2021/12/13 07:13:34;;;;;;;16.20;8.47;;;;;;;-0.24;91.76;100976.81;1421303;91;21582;-82
2021/12/13 07:16:13;;;;;;;22.73;10.37;;;;;;;-0.20;91.99;100986.63;1414561;92;22723;-82
2021/12/13 07:18:57;;;;;;;14.20;6.10;;;;;;;-0.18;91.12;100990.86;1420552;92;21618;-81
2021/12/13 07:21:35;;;;;;;24.60;9.97;;;;;;;-0.18;89.63;100990.86;1425026;91;21727;-81
2021/12/13 07:24:16;;;;;;;19.10;9.73;;;;;;;-0.03;90.32;100991.52;1430582;91;21593;-82
2021/12/13 07:26:56;;;;;;;11.90;5.50;;;;;;;0.02;89.22;100983.50;1432570;91;21829;-82
2021/12/13 07:29:29;;;;;;;14.47;8.30;;;;;;;0.05;87.78;100989.03;1420602;91;21560;-82
2021/12/13 07:32:13;;;;;;;13.90;7.23;;;;;;;0.10;88.53;100986.62;1421235;92;21583;-82
2021/12/13 07:35:01;;;;;;;12.97;7.57;;;;;;;0.08;87.82;100991.50;1402841;92;22520;-82
2021/12/13 07:37:54;;;;;;;13.40;6.60;;;;;;;0.10;89.38;101000.09;1421724;91;22740;-82
2021/12/13 07:40:44;;;;;;;12.13;4.60;;;;;;;0.08;89.57;100996.24;1422795;91;22582;-82
2021/12/13 07:43:17;;;;;;;17.10;6.10;;;;;;;0.04;89.59;101004.27;1420385;91;21561;-82
2021/12/13 07:46:11;;;;;;;10.97;5.70;;;;;;;0.04;91.01;101004.27;1416867;91;21563;-81
2021/12/13 07:48:47;;;;;;;11.30;5.80;;;;;;;0.05;91.10;101011.16;1416528;91;21743;-82
2021/12/13 07:51:31;;;;;;;13.03;6.93;;;;;;;0.03;90.59;101009.06;1422039;91;21695;-81
2021/12/13 07:54:04;;;;;;;17.43;8.00;;;;;;;0.01;90.94;101014.81;1423236;91;22942;-82
2021/12/13 07:56:49;;;;;;;12.10;5.97;;;;;;;0.06;91.21;101016.73;1419724;91;21812;-82
2021/12/13 07:59:30;;;;;;;39.23;12.90;;;;;;;0.04;90.77;101020.72;1422009;91;21713;-81
2021/12/13 08:02:07;;;;;;;;;;;;;;;0.11;90.51;101014.79;1421103;91;21650;-82
2021/12/13 08:05:07;;;;;;;12.33;6.47;;;;;;;0.09;90.09;101021.84;1423282;91;20467;-82
2021/12/13 08:07:46;;;;;;;13.87;7.37;;;;;;;0.03;89.30;101027.28;1414274;92;21836;-82
2021/12/13 08:10:20;;;;;;;;;;;;;;;0.10;89.47;101023.52;1422803;91;21634;-81
2021/12/13 08:12:52;;;;;;;20.27;9.13;;;;;;;0.13;88.68;101026.83;1417972;91;20355;-81
2021/12/13 08:15:28;;;;;;;22.37;8.73;;;;;;;0.17;87.90;101031.44;1419248;91;21738;-82
2021/12/13 08:18:00;;;;;;;20.00;7.83;;;;;;;0.16;86.09;101032.36;1411100;92;21878;-82
2021/12/13 08:20:38;;;;;;;14.67;6.53;;;;;;;0.21;86.28;101035.16;1418564;92;22646;-79
2021/12/13 08:23:09;;;;;;;16.13;8.20;;;;;;;0.16;84.37;101038.88;1442212;90;22816;-81
2021/12/13 08:25:40;;;;;;;16.20;8.03;;;;;;;0.28;84.90;101042.23;1414848;90;21552;-81
2021/12/13 08:28:12;;;;;;;14.95;7.17;;;;;;;0.31;83.97;101035.59;1437077;90;21663;-81
2021/12/13 08:30:53;;;;;;;14.00;7.17;;;;;;;0.27;83.67;101054.88;1436989;90;21518;-81
2021/12/13 08:33:38;;;;;;;17.10;8.08;;;;;;;0.31;83.56;101052.52;1437056;90;21620;-82
2021/12/13 08:36:20;;;;;;;21.97;8.53;;;;;;;0.31;82.69;101052.52;1447348;90;21433;-81
2021/12/13 08:39:02;;;;;;;22.23;11.03;;;;;;;0.30;82.01;101052.59;1441796;90;21866;-81
2021/12/13 08:41:40;;;;;;;13.90;6.30;;;;;;;0.35;83.13;101037.16;1438857;90;21789;-81
2021/12/13 08:44:28;;;;;;;14.37;7.83;;;;;;;0.30;82.38;101033.91;1439044;90;21904;-82
2021/12/13 08:47:12;;;;;;;21.97;9.50;;;;;;;0.38;83.04;101035.73;1446339;90;21839;-82
2021/12/13 08:49:48;;;;;;;19.17;8.87;;;;;;;0.41;81.85;101036.05;1443334;90;21814;-81
2021/12/13 08:52:27;;;;;;;16.63;8.20;;;;;;;0.48;82.10;101039.22;1432550;90;21644;-81
2021/12/13 08:55:15;;;;;;;22.60;9.30;;;;;;;0.44;81.52;101035.45;1437457;90;21739;-81
2021/12/13 08:57:56;;;;;;;18.47;7.97;;;;;;;0.51;82.17;101037.31;1435789;90;22596;-82
2021/12/13 09:00:38;;;;;;;13.33;6.63;;;;;;;0.51;81.67;101037.78;1438064;90;22725;-82
2021/12/13 09:03:14;;;;;;;;;;;;;;;0.45;82.25;101036.29;1443563;90;21746;-82
2021/12/13 09:06:05;;;;;;;18.90;8.33;;;;;;;0.48;82.84;101039.22;1437733;90;20851;-82
2021/12/13 09:08:44;;;;;;;17.73;8.50;;;;;;;0.46;81.99;101039.27;1443790;90;22619;-81
2021/12/13 09:11:38;;;;;;;16.57;8.23;;;;;;;0.54;81.81;101038.94;1444526;90;21359;-81
2021/12/13 09:14:17;;;;;;;14.97;7.57;;;;;;;0.64;81.72;101046.75;1442404;90;21714;-81
2021/12/13 09:17:10;;;;;;;13.17;7.00;;;;;;;0.55;80.43;101041.49;1435622;90;21703;-81
2021/12/13 09:19:55;;;;;;;16.13;7.67;;;;;;;0.64;80.06;101037.16;1416377;92;22625;-79
2021/12/13 09:22:37;;;;;;;24.57;11.37;;;;;;;0.68;80.75;101037.87;1352094;94;22740;-79
2021/12/13 09:25:28;;;;;;;12.27;6.83;;;;;;;0.84;80.25;101039.33;1397114;94;22561;-80
2021/12/13 09:28:03;;;;;;;14.75;7.08;;;;;;;0.85;78.95;101041.84;1403239;93;21936;-79
2021/12/13 09:30:51;;;;;;;11.50;5.63;;;;;;;0.85;78.77;101037.10;1395247;94;21458;-79
2021/12/13 09:33:48;;;;;;;13.70;7.13;;;;;;;0.88;78.22;101035.66;1399840;94;21736;-80
2021/12/13 09:36:23;;;;;;;13.80;7.70;;;;;;;0.89;77.85;101029.08;1411778;94;22598;-79
2021/12/13 09:39:06;;;;;;;17.00;9.00;;;;;;;0.83;77.26;101029.80;1395519;94;21795;-79
2021/12/13 09:42:01;;;;;;;14.80;6.77;;;;;;;0.90;78.30;101033.83;1395698;94;22739;-80
2021/12/13 09:44:55;;;;;;;18.70;9.40;;;;;;;0.89;77.56;101024.30;1390740;94;21700;-79
2021/12/13 09:47:33;;;;;;;12.47;5.53;;;;;;;0.95;78.15;101029.69;1435570;91;21738;-79
2021/12/13 09:50:15;;;;;;;9.50;5.13;;;;;;;1.04;77.74;101029.28;1416656;92;21632;-80
2021/12/13 09:53:00;;;;;;;13.60;7.63;;;;;;;1.05;77.38;101027.89;1410650;92;23851;-79
2021/12/13 09:55:35;;;;;;;12.13;6.33;;;;;;;1.16;77.61;101020.88;1403564;92;21738;-79
2021/12/13 09:58:10;;;;;;;15.07;8.37;;;;;;;1.18;77.24;101014.27;1430634;91;22801;-79
2021/12/13 10:01:01;;;;;;;14.43;6.23;;;;;;;1.21;77.15;101022.81;1436340;91;21876;-77
2021/12/13 10:03:34;;;;;;;15.43;6.72;;;;;;;1.38;80.57;101019.83;1428914;91;21927;-77
2021/12/13 10:06:08;;;;;;;15.03;6.57;;;;;;;1.48;78.25;101018.48;1440632;91;21579;-76
2021/12/13 10:08:49;;;;;;;12.57;6.53;;;;;;;1.82;77.93;101025.95;1422473;92;21995;-73
2021/12/13 10:11:28;;;;;;;20.20;8.77;;;;;;;1.82;77.93;101025.80;1410276;91;22970;-78
2021/12/13 10:13:57;;;;;;;14.70;7.57;;;;;;;1.85;75.97;101025.80;1427088;91;23176;-78
2021/12/13 10:16:31;;;;;;;13.83;6.10;;;;;;;1.69;74.01;101014.80;1425088;91;21952;-78
2021/12/13 10:19:01;;;;;;;15.63;8.53;;;;;;;1.69;74.01;101014.80;1425044;92;23501;-75
2021/12/13 10:21:37;;;;;;;14.55;6.55;;;;;;;1.67;74.96;101020.58;1410102;92;22218;-75
2021/12/13 10:24:31;;;;;;;33.67;13.73;;;;;;;1.72;74.05;101017.72;1415824;91;21524;-80
2021/12/13 10:27:01;;;;;;;17.80;7.67;;;;;;;1.76;73.78;101023.19;1430803;91;22704;-81
2021/12/13 10:29:30;;;;;;;20.17;8.43;;;;;;;1.65;73.79;101021.10;1413850;92;22145;-80
2021/12/13 10:32:02;;;;;;;15.07;7.83;;;;;;;1.63;74.68;101012.50;1412859;92;21961;-80
2021/12/13 10:34:35;;;;;;;12.37;5.57;;;;;;;1.50;73.63;101018.80;1432787;91;22421;-81
2021/12/13 10:37:14;;;;;;;16.87;8.27;;;;;;;1.50;73.63;101018.80;1441564;91;23974;-80
2021/12/13 10:39:47;;;;;;;11.20;5.87;;;;;;;1.52;74.11;101017.40;1434743;91;23325;-80
2021/12/13 10:42:19;;;;;;;17.27;8.43;;;;;;;1.68;73.90;101017.03;1435966;91;22280;-80
2021/12/13 10:44:47;;;;;;;16.87;7.70;;;;;;;1.65;73.09;101001.53;1439104;91;22148;-79
2021/12/13 10:47:29;;;;;;;16.93;9.07;;;;;;;1.76;73.33;101017.50;1429536;91;22235;-79
2021/12/13 10:49:58;;;;;;;16.57;7.83;;;;;;;1.88;72.93;101009.98;1436674;91;22242;-79
2021/12/13 10:52:34;;;;;;;15.30;7.40;;;;;;;1.72;72.33;101010.73;1427973;91;22245;-79
2021/12/13 10:55:09;;;;;;;19.43;9.33;;;;;;;1.72;73.20;101010.73;1428965;90;22163;-80
2021/12/13 10:57:43;;;;;;;17.23;8.73;;;;;;;1.62;72.97;101009.52;1414984;92;22226;-80
2021/12/13 11:00:15;;;;;;;16.30;8.30;;;;;;;1.61;73.75;101002.59;1424834;91;22176;-81
2021/12/13 11:02:43;;;;;;;17.10;8.27;;;;;;;1.61;73.75;101002.59;1413591;92;22210;-81
2021/12/13 11:05:16;;;;;;;15.63;7.23;;;;;;;1.52;73.73;101010.88;1435053;90;22836;-82
2021/12/13 11:07:44;;;;;;;15.87;7.10;;;;;;;1.56;74.24;101018.95;1422382;92;22169;-81
2021/12/13 11:10:16;;;;;;;21.17;10.83;;;;;;;1.57;74.82;101011.50;1429076;91;21939;-81
2021/12/13 11:12:48;;;;;;;12.10;6.10;;;;;;;1.50;74.48;101017.95;1433953;91;21993;-81
2021/12/13 11:15:33;;;;;;;13.00;6.73;;;;;;;1.50;74.48;101017.95;1427910;91;23295;-81
2021/12/13 11:18:04;;;;;;;15.27;7.83;;;;;;;1.48;73.87;101014.56;1428683;91;22899;-81
2021/12/13 11:20:45;;;;;;;14.00;7.35;;;;;;;1.50;74.46;101015.34;1424181;91;21783;-81
2021/12/13 11:23:17;;;;;;;20.80;10.67;;;;;;;1.40;73.98;101016.70;1422204;91;21397;-81
2021/12/13 11:25:55;;;;;;;19.80;9.47;;;;;;;1.54;75.47;101010.35;1433794;91;21885;-81
2021/12/13 11:28:25;;;;;;;22.07;9.60;;;;;;;1.50;74.46;101008.83;1422651;91;22089;-80
2021/12/13 11:30:56;;;;;;;20.60;9.20;;;;;;;1.42;74.95;100999.22;1423450;91;22722;-80
2021/12/13 11:34:03;;;;;;;17.67;9.30;;;;;;;1.42;74.95;100999.22;1423051;91;21883;-80
2021/12/13 11:37:17;;;;;;;15.17;6.80;;;;;;;1.43;74.41;101013.94;1421866;91;21324;-80
2021/12/13 11:40:07;;;;;;;12.30;6.60;;;;;;;1.43;74.41;101013.94;1422241;91;22853;-80
2021/12/13 11:42:42;;;;;;;14.57;7.77;;;;;;;1.51;75.00;101008.73;1425278;91;21771;-80
2021/12/13 11:45:33;;;;;;;17.73;6.53;;;;;;;1.51;75.00;101008.73;1422727;91;21921;-80
2021/12/13 11:48:46;;;;;;;16.05;8.38;;;;;;;1.52;74.90;101014.32;1425677;91;22071;-80
2021/12/13 11:51:54;;;;;;;14.30;7.63;;;;;;;1.71;74.53;101008.22;1429324;91;21345;-81
2021/12/13 11:54:29;;;;;;;18.20;7.27;;;;;;;1.71;74.53;101008.22;1412669;92;22074;-81
2021/12/13 11:57:30;;;;;;;18.30;7.97;;;;;;;1.86;74.58;101009.20;1414287;92;22376;-81
2021/12/13 12:00:40;;;;;;;15.00;7.35;;;;;;;1.96;74.72;101011.28;1428318;91;22033;-81
2021/12/13 12:03:47;;;;;;;17.20;9.30;;;;;;;1.98;74.34;101014.63;1404851;92;21465;-81
2021/12/13 12:06:47;;;;;;;13.73;7.37;;;;;;;1.95;74.04;101019.17;1419175;92;22286;-81
2021/12/13 12:10:07;;;;;;;19.57;9.83;;;;;;;1.81;74.94;101017.25;1429573;91;22202;-82
2021/12/13 12:13:06;;;;;;;17.13;6.63;;;;;;;1.81;74.94;101017.25;1431691;91;22393;-81
2021/12/13 12:15:37;;;;;;;12.50;7.23;;;;;;;1.72;74.43;101022.47;1423475;91;21853;-81
2021/12/13 12:18:11;;;;;;;15.13;6.35;;;;;;;1.72;74.43;101022.47;1409377;92;22262;-82